UAE67S OMDB-LOWW
Flight info
| Callsign | UAE67S |
|---|---|
| Flight time | N/A |
| Altitude | 39000 |
| Route | ANVIX L223 TARDI N629 BOTAM Y855 LAKLU/N0495F380 Q204 NALKI G652 TOKRA DCT ALROK DCT BOSOB DCT ITRUX Y511 PMA Z712 PEGUR/N0493F400 Z712 WEJ L677 GESON Q777 RASDA DCT OTHON DCT VAXOS DCT BANRO UG80 IMR UN127 LMO DCT EVIVI L863 OKANA DCT DONIV DCT PARAK DCT BALUX DCT TORNO DCT NATEX NATEX2W |
| Aircraft | A388/J-SADE2E3FGHIJ3J4J5M1RWXY/LB1D1 |
Departure
| Time | 2026-05-06 16:03 |
|---|---|
| Airport | Dubai International Airport (OMDB) |
Arrival
| Time | N/A |
|---|---|
| Airport | Vienna International Airport (LOWW) |
| Time | Latitude | Longitude | Altitude | Speed | Heading |
|---|---|---|---|---|---|
| 2026-05-06 15:38 | 25.24397 | 55.37294 | 26 ft | 0 kts | 211° |
| 2026-05-06 15:55 | 25.24404 | 55.37298 | 26 ft | 4 kts | 211° |
| 2026-05-06 15:55 | 25.24427 | 55.37314 | 26 ft | 4 kts | 211° |
| 2026-05-06 15:55 | 25.24450 | 55.37329 | 24 ft | 4 kts | 211° |
| 2026-05-06 15:56 | 25.24471 | 55.37343 | 24 ft | 4 kts | 184° |
| 2026-05-06 15:56 | 25.24486 | 55.37333 | 24 ft | 4 kts | 111° |
| 2026-05-06 15:56 | 25.24496 | 55.37307 | 25 ft | 3 kts | 120° |
| 2026-05-06 15:56 | 25.24497 | 55.37303 | 25 ft | 1 kts | 122° |
| 2026-05-06 15:59 | 25.24466 | 55.37361 | 24 ft | 17 kts | 120° |
| 2026-05-06 15:59 | 25.24401 | 55.37474 | 27 ft | 18 kts | 122° |
| 2026-05-06 15:59 | 25.24336 | 55.37588 | 27 ft | 16 kts | 122° |
| 2026-05-06 15:59 | 25.24283 | 55.37680 | 27 ft | 3 kts | 123° |
| 2026-05-06 16:00 | 25.24265 | 55.37716 | 27 ft | 7 kts | 104° |
| 2026-05-06 16:00 | 25.24274 | 55.37767 | 27 ft | 7 kts | 49° |
| 2026-05-06 16:00 | 25.24311 | 55.37802 | 28 ft | 0 kts | 34° |
| 2026-05-06 16:00 | 25.24322 | 55.37810 | 28 ft | 3 kts | 34° |
| 2026-05-06 16:01 | 25.24325 | 55.37812 | 28 ft | 1 kts | 34° |
| 2026-05-06 16:01 | 25.24339 | 55.37823 | 28 ft | 5 kts | 34° |
| 2026-05-06 16:01 | 25.24421 | 55.37885 | 34 ft | 23 kts | 35° |
| 2026-05-06 16:02 | 25.24553 | 55.37985 | 32 ft | 25 kts | 35° |
| 2026-05-06 16:02 | 25.24694 | 55.38084 | 33 ft | 20 kts | 29° |
| 2026-05-06 16:02 | 25.24787 | 55.38057 | 35 ft | 15 kts | 310° |
| 2026-05-06 16:02 | 25.24835 | 55.37978 | 35 ft | 17 kts | 301° |
| 2026-05-06 16:03 | 25.25059 | 55.37572 | 37 ft | 107 kts | 301° |
| 2026-05-06 16:03 | 25.25576 | 55.36647 | 36 ft | 169 kts | 302° |
| 2026-05-06 16:03 | 25.26218 | 55.35507 | 567 ft | 178 kts | 301° |
| 2026-05-06 16:03 | 25.26879 | 55.34305 | 1098 ft | 184 kts | 301° |
| 2026-05-06 16:04 | 25.27523 | 55.33135 | 1983 ft | 175 kts | 301° |
| 2026-05-06 16:04 | 25.28163 | 55.31979 | 2413 ft | 183 kts | 301° |
| 2026-05-06 16:04 | 25.28836 | 55.30766 | 2900 ft | 186 kts | 301° |
| 2026-05-06 16:04 | 25.29321 | 55.29455 | 3333 ft | 188 kts | 274° |
| 2026-05-06 16:05 | 25.29028 | 55.28069 | 3809 ft | 187 kts | 243° |
| 2026-05-06 16:05 | 25.28408 | 55.26771 | 4170 ft | 194 kts | 244° |
| 2026-05-06 16:05 | 25.27810 | 55.25407 | 4512 ft | 200 kts | 245° |
| 2026-05-06 16:05 | 25.27217 | 55.24004 | 4896 ft | 202 kts | 245° |
| 2026-05-06 16:06 | 25.26624 | 55.22590 | 5307 ft | 203 kts | 245° |
| 2026-05-06 16:06 | 25.26033 | 55.21188 | 5698 ft | 205 kts | 245° |
| 2026-05-06 16:06 | 25.25410 | 55.19715 | 5844 ft | 218 kts | 245° |
| 2026-05-06 16:06 | 25.24723 | 55.18171 | 5927 ft | 229 kts | 237° |
| 2026-05-06 16:07 | 25.23508 | 55.16971 | 6118 ft | 246 kts | 204° |
| 2026-05-06 16:07 | 25.21860 | 55.16659 | 6952 ft | 241 kts | 177° |
| 2026-05-06 16:07 | 25.20139 | 55.16828 | 7469 ft | 255 kts | 170° |
| 2026-05-06 16:07 | 25.18505 | 55.17598 | 8193 ft | 259 kts | 141° |
| 2026-05-06 16:08 | 25.17381 | 55.19110 | 8982 ft | 262 kts | 119° |
| 2026-05-06 16:08 | 25.16526 | 55.20944 | 9398 ft | 281 kts | 116° |
| 2026-05-06 16:08 | 25.15636 | 55.22923 | 9952 ft | 289 kts | 117° |
| 2026-05-06 16:08 | 25.14721 | 55.24914 | 10683 ft | 292 kts | 117° |
| 2026-05-06 16:09 | 25.13779 | 55.26918 | 11387 ft | 296 kts | 118° |
| 2026-05-06 16:09 | 25.12817 | 55.28936 | 12070 ft | 299 kts | 118° |
| 2026-05-06 16:09 | 25.11837 | 55.30974 | 12726 ft | 302 kts | 118° |
| 2026-05-06 16:09 | 25.10847 | 55.33029 | 13381 ft | 305 kts | 117° |
| 2026-05-06 16:10 | 25.09949 | 55.35157 | 13983 ft | 308 kts | 114° |
| 2026-05-06 16:10 | 25.09079 | 55.37286 | 14593 ft | 311 kts | 114° |
| 2026-05-06 16:10 | 25.08180 | 55.39473 | 14916 ft | 314 kts | 114° |
| 2026-05-06 16:10 | 25.07273 | 55.41673 | 15004 ft | 315 kts | 115° |
| 2026-05-06 16:11 | 25.06366 | 55.43932 | 15003 ft | 333 kts | 113° |
| 2026-05-06 16:11 | 25.05437 | 55.46361 | 15017 ft | 354 kts | 112° |